createdAt,value
2023-05-02T00:00:41.786Z,101128.47
2023-05-02T00:03:09.058Z,101128.03
2023-05-02T00:05:35.750Z,101126.41
2023-05-02T00:08:02.255Z,101124.34
2023-05-02T00:10:28.592Z,101136.78
2023-05-02T00:12:54.959Z,101124.28
2023-05-02T00:15:21.338Z,101122.66
2023-05-02T00:17:47.928Z,101133.06
2023-05-02T00:20:14.375Z,101132.25
2023-05-02T00:22:40.855Z,101126.16
2023-05-02T00:25:07.660Z,101128.97
2023-05-02T00:27:34.339Z,101134.59
2023-05-02T00:30:01.305Z,101134.97
2023-05-02T00:32:28.660Z,101147.41
2023-05-02T00:34:55.813Z,101147.75
2023-05-02T00:37:26.246Z,101152.13
2023-05-02T00:39:52.588Z,101152.88
2023-05-02T00:42:18.932Z,101163.66
2023-05-02T00:44:46.821Z,101164.41
2023-05-02T00:47:14.738Z,101159.16
2023-05-02T00:49:41.356Z,101159.16
2023-05-02T00:52:08.667Z,101163.50
2023-05-02T00:54:39.093Z,101159.47
2023-05-02T00:57:06.013Z,101174.69
2023-05-02T00:59:34.664Z,101167.00
2023-05-02T01:02:19.512Z,101162.97
2023-05-02T01:05:10.507Z,101160.41
2023-05-02T01:08:04.970Z,101162.78
2023-05-02T01:10:56.906Z,101167.16
2023-05-02T01:13:33.987Z,101158.66
2023-05-02T01:16:03.327Z,101167.09
2023-05-02T01:18:37.014Z,101170.19
2023-05-02T01:21:07.871Z,101170.91
2023-05-02T01:24:02.893Z,101173.59
2023-05-02T01:26:52.404Z,101172.31
2023-05-02T01:29:22.133Z,101168.69
2023-05-02T01:31:51.145Z,101177.03
2023-05-02T01:34:19.997Z,101187.00
2023-05-02T01:36:50.571Z,101178.13
2023-05-02T01:39:22.807Z,101188.47
2023-05-02T01:41:52.052Z,101180.78
2023-05-02T01:44:21.581Z,101181.88
2023-05-02T01:46:49.687Z,101186.22
2023-05-02T01:49:16.267Z,101191.41
2023-05-02T01:51:50.703Z,101195.69
2023-05-02T01:54:20.241Z,101203.63
2023-05-02T01:56:49.204Z,101204.34
2023-05-02T01:59:20.123Z,101208.66
2023-05-02T02:01:49.755Z,101210.66
2023-05-02T02:04:17.487Z,101222.25
2023-05-02T02:06:48.239Z,101226.59
2023-05-02T02:09:14.894Z,101229.75
2023-05-02T02:11:49.839Z,101236.47
2023-05-02T02:14:22.376Z,101233.56
2023-05-02T02:16:53.609Z,101236.00
2023-05-02T02:19:21.743Z,101241.97
2023-05-02T02:21:49.045Z,101242.78
2023-05-02T02:24:18.594Z,101250.00
2023-05-02T02:26:45.173Z,101254.00
2023-05-02T02:29:11.730Z,101249.19
2023-05-02T02:31:39.984Z,101254.81
2023-05-02T02:34:06.490Z,101252.81
2023-05-02T02:36:46.746Z,101250.75
2023-05-02T02:39:55.543Z,101254.38
2023-05-02T02:42:40.887Z,101252.38
2023-05-02T02:45:28.839Z,101254.00
2023-05-02T02:48:16.518Z,101253.91
2023-05-02T02:50:53.229Z,101261.50
2023-05-02T02:53:26.450Z,101259.44
2023-05-02T02:56:00.670Z,101258.63
2023-05-02T02:58:30.254Z,101263.06
2023-05-02T03:00:57.931Z,101260.63
2023-05-02T03:03:29.133Z,101268.19
2023-05-02T03:05:57.344Z,101266.22
2023-05-02T03:08:24.309Z,101269.03
2023-05-02T03:10:51.534Z,101275.78
2023-05-02T03:13:17.886Z,101275.78
2023-05-02T03:16:13.893Z,101272.53
2023-05-02T03:18:41.084Z,101272.66
2023-05-02T03:21:07.703Z,101274.63
2023-05-02T03:23:34.267Z,101281.88
2023-05-02T03:26:00.904Z,101277.88
2023-05-02T03:28:27.256Z,101286.28
2023-05-02T03:30:53.597Z,101285.09
2023-05-02T03:33:20.594Z,101287.91
2023-05-02T03:35:46.940Z,101291.91
2023-05-02T03:38:13.474Z,101291.09
2023-05-02T03:40:42.131Z,101284.66
2023-05-02T03:43:08.702Z,101287.47
2023-05-02T03:45:35.245Z,101284.19
2023-05-02T03:48:02.010Z,101288.19
2023-05-02T03:50:28.915Z,101291.78
2023-05-02T03:52:55.540Z,101290.63
2023-05-02T03:55:21.887Z,101291.47
2023-05-02T03:57:48.311Z,101301.81
2023-05-02T04:00:14.944Z,101310.25
2023-05-02T04:02:41.455Z,101303.81
2023-05-02T04:05:08.677Z,101312.22
2023-05-02T04:07:35.713Z,101317.03
2023-05-02T04:10:02.373Z,101315.03
2023-05-02T04:12:29.001Z,101315.84
2023-05-02T04:14:55.672Z,101320.19
2023-05-02T04:17:22.046Z,101321.81
2023-05-02T04:19:48.783Z,101324.25
2023-05-02T04:22:15.425Z,101328.59
2023-05-02T04:24:41.773Z,101328.97
2023-05-02T04:27:08.292Z,101333.31
2023-05-02T04:29:34.878Z,101333.66
2023-05-02T04:32:01.427Z,101340.47
2023-05-02T04:34:28.407Z,101341.59
2023-05-02T04:36:54.751Z,101348.03
2023-05-02T04:39:22.216Z,101341.25
2023-05-02T04:41:48.565Z,101348.94
2023-05-02T04:44:15.022Z,101346.13
2023-05-02T04:46:41.446Z,101355.00
2023-05-02T04:49:08.120Z,101355.81
2023-05-02T04:51:34.786Z,101357.81
2023-05-02T04:54:04.103Z,101362.25
2023-05-02T04:56:30.520Z,101370.28
2023-05-02T04:58:57.104Z,101372.28
2023-05-02T05:01:24.924Z,101374.38
2023-05-02T05:03:51.478Z,101380.44
2023-05-02T05:06:18.328Z,101378.09
2023-05-02T05:08:45.615Z,101382.16
2023-05-02T05:11:12.968Z,101380.53
2023-05-02T05:13:39.578Z,101387.31
2023-05-02T05:16:06.335Z,101393.75
2023-05-02T05:18:40.199Z,101398.53
2023-05-02T05:21:07.664Z,101399.69
2023-05-02T05:23:34.753Z,101407.28
2023-05-02T05:26:30.482Z,101406.03
2023-05-02T05:28:57.048Z,101407.75
2023-05-02T05:31:24.406Z,101419.31
2023-05-02T05:33:50.921Z,101418.88
2023-05-02T05:36:17.714Z,101423.56
2023-05-02T05:38:44.592Z,101419.50
2023-05-02T05:41:14.121Z,101428.97
2023-05-02T05:43:41.869Z,101438.91
2023-05-02T05:46:08.181Z,101445.22
2023-05-02T05:48:34.539Z,101450.34
2023-05-02T05:51:07.536Z,101457.84
2023-05-02T05:53:34.293Z,101458.66
2023-05-02T05:56:12.505Z,101458.22
2023-05-02T05:58:39.969Z,101458.31
2023-05-02T06:01:07.236Z,101461.56
2023-05-02T06:03:33.782Z,101466.00
2023-05-02T06:06:02.511Z,101468.81
2023-05-02T06:08:29.215Z,101481.31
2023-05-02T06:10:55.635Z,101472.91
2023-05-02T06:13:22.220Z,101466.09
2023-05-02T06:15:48.723Z,101473.00
2023-05-02T06:18:15.686Z,101479.06
2023-05-02T06:20:42.449Z,101481.16
2023-05-02T06:23:08.868Z,101481.59
2023-05-02T06:25:37.862Z,101493.63
2023-05-02T06:28:04.343Z,101493.38
2023-05-02T06:30:31.956Z,101494.69
2023-05-02T06:32:58.631Z,101500.41
2023-05-02T06:35:25.057Z,101508.88
2023-05-02T06:37:52.021Z,101503.38
2023-05-02T06:40:18.417Z,101513.09
2023-05-02T06:42:44.740Z,101513.53
2023-05-02T06:45:11.574Z,101517.97
2023-05-02T06:47:38.053Z,101517.59
2023-05-02T06:50:06.366Z,101529.28
2023-05-02T06:52:32.732Z,101528.63
2023-05-02T06:54:59.080Z,101540.28
2023-05-02T06:57:25.686Z,101544.34
2023-05-02T06:59:52.347Z,101544.84
2023-05-02T07:02:19.147Z,101544.94
2023-05-02T07:04:46.917Z,101551.00
2023-05-02T07:07:13.524Z,101551.56
2023-05-02T07:09:39.869Z,101558.78
2023-05-02T07:12:07.039Z,101559.25
2023-05-02T07:14:33.794Z,101558.91
2023-05-02T07:17:00.444Z,101569.75
2023-05-02T07:19:26.828Z,101578.16
2023-05-02T07:21:53.342Z,101576.22
2023-05-02T07:24:19.850Z,101579.34
2023-05-02T07:26:46.226Z,101583.44
2023-05-02T07:29:12.620Z,101589.06
2023-05-02T07:31:39.646Z,101601.53
2023-05-02T07:34:09.054Z,101604.81
2023-05-02T07:36:35.564Z,101604.00
2023-05-02T07:39:01.885Z,101620.47
2023-05-02T07:41:28.245Z,101626.81
2023-05-02T07:43:54.653Z,101634.22
2023-05-02T07:46:21.725Z,101641.03
2023-05-02T07:48:48.402Z,101638.44
2023-05-02T07:51:15.111Z,101649.13
2023-05-02T07:53:41.528Z,101657.63
2023-05-02T07:56:08.989Z,101671.31
2023-05-02T07:58:37.310Z,101671.38
2023-05-02T08:01:04.423Z,101678.66
2023-05-02T08:03:31.384Z,101678.03
2023-05-02T08:05:58.189Z,101673.75
2023-05-02T08:08:24.671Z,101681.13
2023-05-02T08:10:51.355Z,101684.69
2023-05-02T08:13:18.234Z,101691.50
2023-05-02T08:15:46.036Z,101696.31
2023-05-02T08:18:13.005Z,101697.69
2023-05-02T08:20:39.461Z,101702.78
2023-05-02T08:23:05.802Z,101705.13
2023-05-02T08:25:32.472Z,101707.09
2023-05-02T08:27:58.875Z,101713.50
2023-05-02T08:30:25.471Z,101721.06
2023-05-02T08:32:51.834Z,101722.72
2023-05-02T08:35:18.491Z,101727.13
2023-05-02T08:37:44.870Z,101728.75
2023-05-02T08:40:12.433Z,101739.63
2023-05-02T08:42:42.097Z,101734.84
2023-05-02T08:45:09.670Z,101731.88
2023-05-02T08:47:38.684Z,101736.44
2023-05-02T08:50:06.264Z,101747.78
2023-05-02T08:52:33.568Z,101748.59
2023-05-02T08:55:02.512Z,101755.34
2023-05-02T08:57:31.083Z,101753.38
2023-05-02T08:59:57.687Z,101768.03
2023-05-02T09:02:44.998Z,101769.84
2023-05-02T09:05:12.837Z,101763.09
2023-05-02T09:07:47.745Z,101776.13
2023-05-02T09:10:15.248Z,101771.81
2023-05-02T09:12:42.079Z,101781.84
2023-05-02T09:15:14.260Z,101787.78
2023-05-02T09:17:45.884Z,101787.94
2023-05-02T09:20:13.814Z,101801.72
2023-05-02T09:22:49.399Z,101809.44
2023-05-02T09:25:16.688Z,101798.75
2023-05-02T09:27:55.024Z,101811.75
2023-05-02T09:30:26.148Z,101807.78
2023-05-02T09:32:55.829Z,101810.59
2023-05-02T09:35:26.100Z,101813.53
2023-05-02T09:37:57.431Z,101806.78
2023-05-02T09:40:24.352Z,101805.44
2023-05-02T09:42:54.540Z,101810.81
2023-05-02T09:45:25.765Z,101812.59
2023-05-02T09:47:53.482Z,101824.56
2023-05-02T09:50:35.025Z,101823.53
2023-05-02T09:53:07.141Z,101826.16
2023-05-02T09:55:33.718Z,101818.25
2023-05-02T09:58:01.144Z,101831.88
2023-05-02T10:00:46.143Z,101842.94
2023-05-02T10:03:16.699Z,101841.78
2023-05-02T10:05:45.304Z,101846.22
2023-05-02T10:08:12.128Z,101847.53
2023-05-02T10:10:41.986Z,101849.16
2023-05-02T10:13:09.083Z,101850.00
2023-05-02T10:15:44.656Z,101858.72
2023-05-02T10:18:17.209Z,101856.41
2023-05-02T10:20:49.814Z,101853.72
2023-05-02T10:23:17.522Z,101861.47
2023-05-02T10:25:43.950Z,101856.47
2023-05-02T10:28:12.673Z,101863.03
2023-05-02T10:30:39.996Z,101856.41
2023-05-02T10:33:06.653Z,101846.19
2023-05-02T10:35:33.381Z,101853.69
2023-05-02T10:38:01.112Z,101850.19
2023-05-02T10:40:27.884Z,101848.03
2023-05-02T10:42:54.521Z,101847.50
2023-05-02T10:45:34.705Z,101848.78
2023-05-02T10:48:20.879Z,101860.28
2023-05-02T10:50:48.354Z,101862.50
2023-05-02T10:53:37.273Z,101857.72
2023-05-02T10:56:12.009Z,101861.34
2023-05-02T10:58:38.702Z,101865.78
2023-05-02T11:01:28.385Z,101869.16
2023-05-02T11:04:03.309Z,101866.69
2023-05-02T11:06:32.730Z,101869.81
2023-05-02T11:09:18.547Z,101869.22
2023-05-02T11:11:45.452Z,101872.16
2023-05-02T11:14:33.051Z,101874.13
2023-05-02T11:17:04.524Z,101861.78
2023-05-02T11:19:53.989Z,101864.44
2023-05-02T11:22:28.220Z,101864.22
2023-05-02T11:24:55.763Z,101857.13
2023-05-02T11:27:32.172Z,101866.47
2023-05-02T11:30:09.978Z,101865.25
2023-05-02T11:32:46.053Z,101858.25
2023-05-02T11:35:26.886Z,101870.06
2023-05-02T11:37:54.131Z,101862.38
2023-05-02T11:40:20.568Z,101869.41
2023-05-02T11:42:47.329Z,101876.44
2023-05-02T11:45:13.889Z,101872.59
2023-05-02T11:47:42.302Z,101880.78
2023-05-02T11:50:12.288Z,101887.81
2023-05-02T11:52:48.163Z,101894.38
2023-05-02T11:55:15.829Z,101886.41
2023-05-02T11:57:43.154Z,101882.13
2023-05-02T12:00:13.122Z,101886.19
2023-05-02T12:02:44.983Z,101884.19
2023-05-02T12:05:14.433Z,101887.31
2023-05-02T12:07:43.255Z,101882.63
2023-05-02T12:10:11.337Z,101887.66
2023-05-02T12:12:39.413Z,101896.34
2023-05-02T12:15:07.523Z,101891.63
2023-05-02T12:17:39.186Z,101901.00
2023-05-02T12:20:07.146Z,101909.19
2023-05-02T12:22:34.111Z,101908.13
2023-05-02T12:25:01.067Z,101905.44
2023-05-02T12:27:28.098Z,101899.97
2023-05-02T12:29:54.893Z,101909.66
2023-05-02T12:32:33.670Z,101906.16
2023-05-02T12:35:02.110Z,101909.53
2023-05-02T12:37:30.113Z,101910.13
2023-05-02T12:39:56.731Z,101917.13
2023-05-02T12:42:26.647Z,101905.56
2023-05-02T12:44:53.228Z,101911.41
2023-05-02T12:47:21.459Z,101911.88
2023-05-02T12:49:51.250Z,101912.69
2023-05-02T12:52:19.131Z,101920.88
2023-05-02T12:54:46.534Z,101922.50
2023-05-02T12:57:26.284Z,101924.03
2023-05-02T12:59:54.427Z,101929.41
2023-05-02T13:02:21.612Z,101927.44
2023-05-02T13:04:47.984Z,101937.13
2023-05-02T13:07:14.551Z,101934.81
2023-05-02T13:09:40.949Z,101933.63
2023-05-02T13:12:07.929Z,101930.47
2023-05-02T13:14:34.570Z,101941.34
2023-05-02T13:17:01.711Z,101925.34
2023-05-02T13:19:31.087Z,101932.22
2023-05-02T13:21:57.995Z,101933.84
2023-05-02T13:24:24.430Z,101943.09
2023-05-02T13:26:51.719Z,101939.97
2023-05-02T13:29:18.205Z,101938.78
2023-05-02T13:31:44.848Z,101939.72
2023-05-02T13:34:11.465Z,101937.34
2023-05-02T13:36:43.963Z,101945.09
2023-05-02T13:39:10.493Z,101950.47
2023-05-02T13:41:38.383Z,101947.28
2023-05-02T13:44:05.053Z,101948.09
2023-05-02T13:46:36.727Z,101951.28
2023-05-02T13:49:04.139Z,101949.97
2023-05-02T13:51:34.254Z,101941.09
2023-05-02T13:54:02.329Z,101947.09
2023-05-02T13:56:29.031Z,101955.50
2023-05-02T13:58:55.568Z,101944.59
2023-05-02T14:01:22.006Z,101955.84
2023-05-02T14:03:48.661Z,101959.50
2023-05-02T14:06:15.358Z,101959.84
2023-05-02T14:08:42.389Z,101953.28
2023-05-02T14:11:08.973Z,101966.06
2023-05-02T14:13:35.413Z,101963.50
2023-05-02T14:16:01.793Z,101958.56
2023-05-02T14:18:28.409Z,101955.59
2023-05-02T14:20:58.009Z,101964.03
2023-05-02T14:23:24.317Z,101965.69
2023-05-02T14:25:50.977Z,101966.50
2023-05-02T14:28:17.982Z,101963.72
2023-05-02T14:30:44.374Z,101965.38
2023-05-02T14:33:11.182Z,101958.56
2023-05-02T14:35:37.610Z,101961.38
2023-05-02T14:38:04.126Z,101960.56
2023-05-02T14:40:30.617Z,101963.81
2023-05-02T14:42:57.579Z,101959.75
2023-05-02T14:45:24.182Z,101967.31
2023-05-02T14:47:50.678Z,101959.75
2023-05-02T14:50:17.505Z,101967.31
2023-05-02T14:52:46.327Z,101968.19
2023-05-02T14:55:13.063Z,101963.81
2023-05-02T14:57:39.404Z,101962.19
2023-05-02T15:00:10.557Z,101963.50
2023-05-02T15:02:37.069Z,101974.84
2023-05-02T15:05:13.061Z,101961.63
2023-05-02T15:07:39.889Z,101960.09
2023-05-02T15:10:06.916Z,101959.25
2023-05-02T15:12:34.840Z,101962.06
2023-05-02T15:15:01.568Z,101961.25
2023-05-02T15:17:27.892Z,101963.13
2023-05-02T15:19:55.354Z,101961.00
2023-05-02T15:22:25.949Z,101957.75
2023-05-02T15:24:52.547Z,101950.00
2023-05-02T15:27:19.187Z,101964.41
2023-05-02T15:29:53.955Z,101965.22
2023-05-02T15:32:21.696Z,101961.22
2023-05-02T15:34:48.390Z,101970.13
2023-05-02T15:37:14.893Z,101967.81
2023-05-02T15:39:42.089Z,101971.44
2023-05-02T15:42:08.706Z,101976.72
2023-05-02T15:44:38.954Z,101975.56
2023-05-02T15:47:06.492Z,101982.78
2023-05-02T15:49:34.661Z,101982.78
2023-05-02T15:52:02.369Z,101978.72
2023-05-02T15:54:28.985Z,101976.25
2023-05-02T15:56:55.416Z,101979.75
2023-05-02T15:59:21.778Z,101982.88
2023-05-02T16:01:48.191Z,101987.22
2023-05-02T16:04:15.952Z,101992.38
2023-05-02T16:06:42.370Z,101979.50
2023-05-02T16:09:10.559Z,101985.47
2023-05-02T16:11:37.055Z,101986.66
2023-05-02T16:14:04.249Z,101984.53
2023-05-02T16:16:31.054Z,101981.28
2023-05-02T16:18:57.549Z,101981.59
2023-05-02T16:21:24.128Z,101985.22
2023-05-02T16:23:50.479Z,101985.22
2023-05-02T16:26:17.082Z,101987.72
2023-05-02T16:28:43.810Z,101989.78
2023-05-02T16:31:11.676Z,101987.94
2023-05-02T16:33:39.179Z,101982.44
2023-05-02T16:36:06.365Z,101991.81
2023-05-02T16:38:33.542Z,101989.13
2023-05-02T16:41:03.209Z,101989.59
2023-05-02T16:43:30.589Z,101989.34
2023-05-02T16:46:02.402Z,101979.38
2023-05-02T16:48:30.191Z,101987.25
2023-05-02T16:50:57.341Z,101986.50
2023-05-02T16:53:24.353Z,101991.44
2023-05-02T16:55:51.044Z,101976.69
2023-05-02T16:58:17.401Z,101990.00
2023-05-02T17:00:43.912Z,101988.50
2023-05-02T17:03:11.116Z,102001.00
2023-05-02T17:05:39.175Z,102001.38
2023-05-02T17:08:06.065Z,101991.31
2023-05-02T17:10:32.642Z,102004.88
2023-05-02T17:12:59.389Z,102000.00
2023-05-02T17:15:26.151Z,101994.25
2023-05-02T17:17:52.768Z,102001.06
2023-05-02T17:20:20.354Z,102009.84
2023-05-02T17:22:46.916Z,102006.19
2023-05-02T17:25:14.124Z,102007.84
2023-05-02T17:27:41.326Z,102012.66
2023-05-02T17:30:08.631Z,102011.81
2023-05-02T17:32:37.538Z,102009.34
2023-05-02T17:35:06.031Z,102004.47
2023-05-02T17:37:35.108Z,102005.16
2023-05-02T17:40:02.495Z,101996.59
2023-05-02T17:42:29.340Z,101995.66
2023-05-02T17:44:56.017Z,101998.72
2023-05-02T17:47:22.731Z,102000.22
2023-05-02T17:49:51.342Z,102003.72
2023-05-02T17:52:17.638Z,102009.72
2023-05-02T17:54:46.193Z,102010.03
2023-05-02T17:57:14.439Z,102008.31
2023-05-02T17:59:41.741Z,102012.63
2023-05-02T18:02:10.346Z,102003.50
2023-05-02T18:04:37.468Z,102013.31
2023-05-02T18:07:05.972Z,102015.88
2023-05-02T18:09:32.913Z,102019.28
2023-05-02T18:12:00.653Z,102017.50
2023-05-02T18:14:27.226Z,102021.34
2023-05-02T18:16:53.634Z,102023.22
2023-05-02T18:19:20.260Z,102025.56
2023-05-02T18:21:46.799Z,102031.03
2023-05-02T18:24:13.210Z,102037.34
2023-05-02T18:26:39.832Z,102030.81
2023-05-02T18:29:06.182Z,102033.94
2023-05-02T18:31:32.919Z,102032.16
2023-05-02T18:33:59.298Z,102034.88
2023-05-02T18:36:27.413Z,102035.53
2023-05-02T18:38:57.180Z,102044.19
2023-05-02T18:41:23.968Z,102040.06
2023-05-02T18:43:50.626Z,102039.13
2023-05-02T18:46:17.073Z,102040.13
2023-05-02T18:48:44.062Z,102039.50
2023-05-02T18:51:10.750Z,102039.38
2023-05-02T18:53:37.198Z,102049.66
2023-05-02T18:56:04.106Z,102052.66
2023-05-02T18:58:30.672Z,102053.69
2023-05-02T19:00:57.384Z,102067.56
2023-05-02T19:03:23.988Z,102067.78
2023-05-02T19:05:51.269Z,102067.16
2023-05-02T19:08:17.691Z,102066.19
2023-05-02T19:10:44.348Z,102062.78
2023-05-02T19:13:11.000Z,102069.41
2023-05-02T19:15:37.514Z,102074.84
2023-05-02T19:18:04.059Z,102074.69
2023-05-02T19:20:30.667Z,102084.63
2023-05-02T19:23:14.662Z,102084.47
2023-05-02T19:25:46.052Z,102086.00
2023-05-02T19:28:17.170Z,102097.50
2023-05-02T19:30:44.876Z,102091.63
2023-05-02T19:33:11.633Z,102085.88
2023-05-02T19:35:38.445Z,102086.88
2023-05-02T19:38:05.038Z,102078.19
2023-05-02T19:40:31.584Z,102084.31
2023-05-02T19:42:57.964Z,102093.69
2023-05-02T19:45:24.605Z,102098.66
2023-05-02T19:47:51.274Z,102105.25
2023-05-02T19:50:17.949Z,102105.13
2023-05-02T19:52:44.922Z,102100.19
2023-05-02T19:55:11.671Z,102112.03
2023-05-02T19:57:38.054Z,102116.34
2023-05-02T20:00:06.356Z,102114.56
2023-05-02T20:02:33.580Z,102117.66
2023-05-02T20:05:00.019Z,102123.94
2023-05-02T20:07:26.412Z,102121.81
2023-05-02T20:09:53.231Z,102129.72
2023-05-02T20:12:19.932Z,102124.78
2023-05-02T20:14:46.284Z,102120.69
2023-05-02T20:17:12.590Z,102127.75
2023-05-02T20:19:39.203Z,102122.81
2023-05-02T20:22:05.886Z,102126.75
2023-05-02T20:24:32.269Z,102128.25
2023-05-02T20:26:59.412Z,102130.56
2023-05-02T20:29:26.110Z,102134.50
2023-05-02T20:31:54.314Z,102132.88
2023-05-02T20:34:22.716Z,102136.84
2023-05-02T20:36:49.366Z,102141.59
2023-05-02T20:39:16.155Z,102135.50
2023-05-02T20:41:43.789Z,102137.81
2023-05-02T20:44:10.365Z,102138.97
2023-05-02T20:46:36.902Z,102136.84
2023-05-02T20:49:03.574Z,102138.00
2023-05-02T20:51:30.216Z,102138.66
2023-05-02T20:53:56.926Z,102152.97
2023-05-02T20:56:23.332Z,102146.03
2023-05-02T20:58:49.707Z,102153.97
2023-05-02T21:01:16.688Z,102158.22
2023-05-02T21:03:44.280Z,102151.31
2023-05-02T21:06:10.745Z,102146.88
2023-05-02T21:08:37.211Z,102153.59
2023-05-02T21:11:13.388Z,102158.22
2023-05-02T21:13:40.511Z,102161.53
2023-05-02T21:16:14.404Z,102162.16
2023-05-02T21:18:40.845Z,102154.59
2023-05-02T21:21:07.558Z,102155.28
2023-05-02T21:23:34.159Z,102161.50
2023-05-02T21:26:00.552Z,102154.91
2023-05-02T21:28:27.160Z,102156.25
2023-05-02T21:30:55.147Z,102165.56
2023-05-02T21:33:21.769Z,102166.56
2023-05-02T21:35:55.013Z,102168.50
2023-05-02T21:38:21.382Z,102160.78
2023-05-02T21:40:47.760Z,102161.56
2023-05-02T21:43:14.331Z,102151.19
2023-05-02T21:45:45.631Z,102161.22
2023-05-02T21:48:13.282Z,102152.47
2023-05-02T21:50:40.776Z,102164.59
2023-05-02T21:53:07.282Z,102167.88
2023-05-02T21:55:36.560Z,102157.16
2023-05-02T21:58:04.039Z,102157.63
2023-05-02T22:00:32.278Z,102166.16
2023-05-02T22:03:01.577Z,102167.13
2023-05-02T22:05:28.260Z,102161.66
2023-05-02T22:07:56.636Z,102156.56
2023-05-02T22:10:22.940Z,102165.88
2023-05-02T22:12:49.358Z,102172.44
2023-05-02T22:15:15.733Z,102178.16
2023-05-02T22:17:43.090Z,102171.50
2023-05-02T22:20:12.875Z,102178.38
2023-05-02T22:22:41.291Z,102167.84
2023-05-02T22:25:08.392Z,102168.78
2023-05-02T22:27:35.246Z,102169.41
2023-05-02T22:30:02.409Z,102170.38
2023-05-02T22:32:29.025Z,102170.69
2023-05-02T22:34:55.590Z,102173.00
2023-05-02T22:37:21.960Z,102177.56
2023-05-02T22:39:48.533Z,102182.09
2023-05-02T22:42:14.906Z,102179.44
2023-05-02T22:44:53.024Z,102187.63
2023-05-02T22:47:24.015Z,102178.53
2023-05-02T22:49:52.480Z,102188.69
2023-05-02T22:52:20.700Z,102192.13
2023-05-02T22:54:47.260Z,102186.53
2023-05-02T22:57:15.192Z,102191.72
2023-05-02T22:59:41.788Z,102187.06
2023-05-02T23:02:11.887Z,102188.34
2023-05-02T23:04:38.607Z,102186.97
2023-05-02T23:07:04.995Z,102184.31
2023-05-02T23:09:31.523Z,102184.44
2023-05-02T23:11:57.901Z,102190.94
2023-05-02T23:14:24.509Z,102184.66
2023-05-02T23:16:53.508Z,102183.13
2023-05-02T23:19:20.229Z,102178.81
2023-05-02T23:21:49.440Z,102181.69
2023-05-02T23:24:16.177Z,102182.63
2023-05-02T23:26:42.783Z,102184.38
2023-05-02T23:29:09.566Z,102179.72
2023-05-02T23:31:36.141Z,102185.88
2023-05-02T23:34:02.580Z,102186.00
2023-05-02T23:36:28.998Z,102184.94
2023-05-02T23:38:56.799Z,102176.41
2023-05-02T23:41:23.703Z,102175.88
2023-05-02T23:43:50.396Z,102180.94
2023-05-02T23:46:16.999Z,102170.09
2023-05-02T23:48:43.369Z,102175.97
2023-05-02T23:51:10.022Z,102181.06
2023-05-02T23:53:36.673Z,102181.34
2023-05-02T23:56:03.063Z,102182.47
2023-05-02T23:58:29.771Z,102175.25
